Strongs, Michigan
Current Conditions -  °F | °C
As of 9:14 AM on Thursday 30 Oct 2014 (Local Time) from KERY Reporting Station
Overcast Overcast  
Wind Chill: -1°   Ceiling: 3000
Heat Index:   Visibility: 10mi
Dew Point:   Wind: 7mph
Humidity: 95%   Direction: 230°SW
Pressure: 30.05"   Gusts: NA
Location:  46.36°N, 84.97°W
Report Text: KERY 301314Z AUTO 23006KT 10SM OVC030 02/01 A3005 RMK AO2 T00190012
Loading
Personal Weather Stations






























Interactive Weather Map
Tropical Storm Tracking
New forecast layout! Learn more

10-Day Weather Forecast

Advertisements
Track Severe Weather on mobile